createdAt,value
2019-04-30T00:04:42.241Z,100381.45
2019-04-30T00:09:49.222Z,100381.90
2019-04-30T00:14:51.470Z,100384.83
2019-04-30T00:19:58.742Z,100381.27
2019-04-30T00:25:00.205Z,100374.31
2019-04-30T00:30:08.935Z,100372.77
2019-04-30T00:35:11.870Z,100373.38
2019-04-30T00:40:15.932Z,100369.81
2019-04-30T00:45:19.393Z,100365.64
2019-04-30T00:50:24.795Z,100362.86
2019-04-30T00:55:28.083Z,100360.50
2019-04-30T01:00:35.249Z,100351.98
2019-04-30T01:05:39.537Z,100357.72
2019-04-30T01:10:46.024Z,100358.75
2019-04-30T01:15:52.486Z,100361.11
2019-04-30T01:20:54.934Z,100355.97
2019-04-30T01:25:58.663Z,100360.74
2019-04-30T01:31:02.152Z,100354.58
2019-04-30T01:36:09.738Z,100358.14
2019-04-30T01:41:10.946Z,100351.59
2019-04-30T01:46:14.412Z,100344.48
2019-04-30T01:51:21.696Z,100347.69
2019-04-30T01:56:24.701Z,100340.13
2019-04-30T02:01:31.197Z,100346.90
2019-04-30T02:06:34.747Z,100350.47
2019-04-30T02:11:38.863Z,100354.45
2019-04-30T02:16:42.351Z,100358.63
2019-04-30T02:21:45.816Z,100357.23
2019-04-30T02:26:49.274Z,100365.20
2019-04-30T02:31:52.736Z,100370.16
2019-04-30T02:37:03.857Z,100373.55
2019-04-30T02:42:09.678Z,100369.01
2019-04-30T02:47:15.874Z,100373.36
2019-04-30T02:52:21.117Z,100370.25
2019-04-30T02:57:24.579Z,100364.84
2019-04-30T03:02:29.162Z,100373.02
2019-04-30T03:07:32.844Z,100373.02
2019-04-30T03:12:36.300Z,100376.83
2019-04-30T03:17:43.791Z,100378.03
2019-04-30T03:22:47.256Z,100376.83
2019-04-30T03:27:50.722Z,100371.69
2019-04-30T03:43:03.033Z,100380.63
2019-04-30T03:48:09.930Z,100386.61
2019-04-30T03:53:11.938Z,100384.43
2019-04-30T03:58:15.402Z,100388.78
2019-04-30T04:03:20.102Z,100397.11
2019-04-30T04:08:29.368Z,100403.28
2019-04-30T04:13:33.255Z,100401.70
2019-04-30T04:18:36.733Z,100413.45
2019-04-30T04:23:40.202Z,100416.83
2019-04-30T04:28:43.733Z,100420.40
2019-04-30T04:33:49.686Z,100424.30
2019-04-30T04:38:52.383Z,100422.08
2019-04-30T04:43:55.845Z,100424.44
2019-04-30T04:48:59.714Z,100427.03
2019-04-30T04:54:03.598Z,100426.25
2019-04-30T04:59:07.148Z,100436.94
2019-04-30T05:04:11.752Z,100433.53
2019-04-30T05:09:15.458Z,100436.31
2019-04-30T05:14:19.113Z,100441.27
2019-04-30T05:19:22.661Z,100437.05
2019-04-30T05:24:26.116Z,100438.80
2019-04-30T05:29:29.580Z,100442.73
2019-04-30T05:34:33.040Z,100444.31
2019-04-30T05:39:36.512Z,100453.02
2019-04-30T05:44:39.969Z,100458.34
2019-04-30T05:49:43.431Z,100461.64
2019-04-30T05:54:48.666Z,100460.80
2019-04-30T05:59:52.098Z,100465.08
2019-04-30T06:04:55.562Z,100465.62
2019-04-30T06:10:00.676Z,100472.50
2019-04-30T06:15:15.756Z,100479.03
2019-04-30T06:20:21.098Z,100474.48
2019-04-30T06:25:35.491Z,100474.48
2019-04-30T06:30:31.109Z,100473.70
2019-04-30T06:35:34.566Z,100471.29
2019-04-30T06:40:39.124Z,100471.14
2019-04-30T06:45:42.689Z,100472.38
2019-04-30T06:50:46.144Z,100469.89
2019-04-30T06:55:50.377Z,100472.17
2019-04-30T07:00:53.836Z,100473.27
2019-04-30T07:05:58.647Z,100478.59
2019-04-30T07:11:20.231Z,100471.81
2019-04-30T07:16:23.705Z,100480.33
2019-04-30T07:21:31.259Z,100479.02
2019-04-30T07:26:32.421Z,100474.66
2019-04-30T07:31:35.878Z,100477.44
2019-04-30T07:36:48.430Z,100478.64
2019-04-30T07:41:44.522Z,100480.82
2019-04-30T07:46:49.339Z,100482.81
2019-04-30T07:51:53.708Z,100485.43
2019-04-30T07:57:00.219Z,100483.44
2019-04-30T08:02:10.105Z,100486.63
2019-04-30T08:07:09.756Z,100484.64
2019-04-30T08:12:22.140Z,100483.25
2019-04-30T08:17:18.862Z,100483.44
2019-04-30T08:22:22.436Z,100488.80
2019-04-30T08:27:25.899Z,100493.58
2019-04-30T08:32:29.362Z,100499.92
2019-04-30T08:37:32.828Z,100494.17
2019-04-30T08:42:39.172Z,100492.19
2019-04-30T08:47:41.474Z,100490.80
2019-04-30T08:52:44.956Z,100487.23
2019-04-30T08:57:50.047Z,100488.02
2019-04-30T09:02:53.650Z,100495.56
2019-04-30T09:07:57.108Z,100485.84
2019-04-30T09:13:00.587Z,100476.91
2019-04-30T09:18:08.241Z,100477.88
2019-04-30T09:23:11.273Z,100477.88
2019-04-30T09:28:14.886Z,100467.42
2019-04-30T09:33:19.448Z,100472.38
2019-04-30T09:38:23.016Z,100476.50
2019-04-30T09:43:28.497Z,100483.59
2019-04-30T09:48:31.693Z,100480.41
2019-04-30T09:53:35.237Z,100481.98
2019-04-30T09:58:39.369Z,100478.98
2019-04-30T10:03:43.471Z,100469.00
2019-04-30T10:08:50.571Z,100459.84
2019-04-30T10:13:52.338Z,100452.47
2019-04-30T10:18:55.814Z,100446.32
2019-04-30T10:24:12.575Z,100444.34
2019-04-30T10:29:05.133Z,100433.54
2019-04-30T10:34:09.708Z,100430.98
2019-04-30T10:39:13.443Z,100434.42
2019-04-30T10:44:18.691Z,100432.95
2019-04-30T10:49:22.334Z,100440.20
2019-04-30T10:54:26.546Z,100442.52
2019-04-30T10:59:31.015Z,100439.66
2019-04-30T11:04:34.494Z,100444.56
2019-04-30T11:09:39.367Z,100440.39
2019-04-30T11:14:43.102Z,100432.48
2019-04-30T11:19:46.760Z,100429.80
2019-04-30T11:24:59.105Z,100427.39
2019-04-30T11:30:01.514Z,100421.66
2019-04-30T11:35:01.272Z,100428.00
2019-04-30T11:40:10.347Z,100426.09
2019-04-30T11:45:16.866Z,100423.72
2019-04-30T11:50:20.609Z,100425.11
2019-04-30T11:55:24.085Z,100416.30
2019-04-30T12:00:29.687Z,100408.86
2019-04-30T12:05:33.265Z,100398.72
2019-04-30T12:10:44.104Z,100402.20
2019-04-30T12:15:50.049Z,100399.37
2019-04-30T12:20:52.751Z,100402.34
2019-04-30T12:25:56.210Z,100397.11
2019-04-30T12:30:59.672Z,100391.38
2019-04-30T12:36:03.196Z,100370.91
2019-04-30T12:46:09.055Z,100365.95
2019-04-30T12:51:29.994Z,100351.08
2019-04-30T12:56:38.054Z,100362.80
2019-04-30T13:01:41.787Z,100370.38
2019-04-30T13:06:48.047Z,100351.95
2019-04-30T13:11:51.553Z,100350.93
2019-04-30T13:16:55.377Z,100341.96
2019-04-30T13:21:58.831Z,100335.56
2019-04-30T13:27:02.289Z,100327.59
2019-04-30T13:32:05.824Z,100331.06
2019-04-30T13:37:09.376Z,100329.63
2019-04-30T13:42:17.690Z,100316.81
2019-04-30T13:47:19.648Z,100307.60
2019-04-30T13:52:24.013Z,100311.02
2019-04-30T13:57:27.468Z,100303.52
2019-04-30T14:02:32.578Z,100301.34
2019-04-30T14:07:43.678Z,100301.53
2019-04-30T14:12:51.450Z,100290.66
2019-04-30T14:17:54.914Z,100296.39
2019-04-30T14:22:58.374Z,100289.44
2019-04-30T14:28:01.832Z,100283.49
2019-04-30T14:33:05.295Z,100281.31
2019-04-30T14:38:09.160Z,100282.55
2019-04-30T14:43:15.040Z,100274.82
2019-04-30T14:48:23.387Z,100265.70
2019-04-30T14:53:36.165Z,100269.08
2019-04-30T14:58:41.265Z,100263.95
2019-04-30T15:03:44.729Z,100258.63
2019-04-30T15:08:49.472Z,100254.77
2019-04-30T15:13:53.037Z,100256.69
2019-04-30T15:18:56.489Z,100259.30
2019-04-30T15:24:01.819Z,100255.19
2019-04-30T15:29:11.797Z,100247.03
2019-04-30T15:34:12.054Z,100247.81
2019-04-30T15:39:17.163Z,100251.98
2019-04-30T15:44:20.636Z,100245.97
2019-04-30T15:49:24.122Z,100245.03
2019-04-30T15:54:29.262Z,100240.33
2019-04-30T15:59:40.464Z,100245.19
2019-04-30T16:04:45.579Z,100241.89
2019-04-30T16:10:05.458Z,100235.38
2019-04-30T16:15:10.063Z,100234.58
2019-04-30T16:20:13.901Z,100230.59
2019-04-30T16:25:19.301Z,100227.64
2019-04-30T16:30:23.014Z,100226.25
2019-04-30T16:35:26.492Z,100227.81
2019-04-30T16:40:29.979Z,100227.81
2019-04-30T16:45:33.527Z,100222.86
2019-04-30T16:50:37.005Z,100229.20
2019-04-30T16:55:40.478Z,100218.45
2019-04-30T17:00:44.096Z,100218.03
2019-04-30T17:05:49.910Z,100215.40
2019-04-30T17:10:55.210Z,100212.22
2019-04-30T17:16:00.330Z,100215.36
2019-04-30T17:21:03.878Z,100211.62
2019-04-30T17:26:07.354Z,100210.05
2019-04-30T17:31:13.404Z,100214.82
2019-04-30T17:36:16.038Z,100214.82
2019-04-30T17:41:19.511Z,100206.14
2019-04-30T17:46:24.075Z,100206.14
2019-04-30T17:51:27.554Z,100205.99
2019-04-30T17:56:31.026Z,100197.30
2019-04-30T18:01:34.521Z,100207.98
2019-04-30T18:06:38.052Z,100204.42
2019-04-30T18:11:41.528Z,100205.99
2019-04-30T18:16:45.059Z,100198.27
2019-04-30T18:22:02.201Z,100205.63
2019-04-30T18:27:07.300Z,100211.98
2019-04-30T18:32:10.757Z,100209.02
2019-04-30T18:37:14.212Z,100211.44
2019-04-30T18:42:19.346Z,100210.23
2019-04-30T18:47:23.082Z,100211.23
2019-04-30T18:52:26.543Z,100217.60
2019-04-30T18:57:30.003Z,100216.00
2019-04-30T19:02:33.463Z,100218.03
2019-04-30T19:07:41.215Z,100219.42
2019-04-30T19:12:52.032Z,100222.95
2019-04-30T19:18:14.876Z,100227.12
2019-04-30T19:23:19.083Z,100226.97
2019-04-30T19:28:22.676Z,100229.56
2019-04-30T19:33:26.145Z,100230.17
2019-04-30T19:38:29.602Z,100226.19
2019-04-30T19:43:33.056Z,100229.39
2019-04-30T19:48:36.516Z,100227.21
2019-04-30T19:53:39.972Z,100229.14
2019-04-30T19:58:52.542Z,100237.42
2019-04-30T20:03:48.687Z,100232.83
2019-04-30T20:08:52.146Z,100232.55
2019-04-30T20:13:55.611Z,100234.91
2019-04-30T20:18:59.262Z,100237.51
2019-04-30T20:24:02.705Z,100238.29
2019-04-30T20:29:06.161Z,100240.28
2019-04-30T20:34:09.634Z,100231.02
2019-04-30T20:39:16.042Z,100236.57
2019-04-30T20:44:19.558Z,100235.78
2019-04-30T20:49:24.879Z,100232.04
2019-04-30T20:54:29.124Z,100229.44
2019-04-30T20:59:32.745Z,100224.91
2019-04-30T21:04:36.217Z,100227.69
2019-04-30T21:09:39.664Z,100222.55
2019-04-30T21:14:43.124Z,100228.11
2019-04-30T21:19:46.585Z,100222.20
2019-04-30T21:24:50.037Z,100226.19
2019-04-30T21:29:53.499Z,100225.58
2019-04-30T21:35:04.031Z,100222.62
2019-04-30T21:40:09.662Z,100219.05
2019-04-30T21:45:13.153Z,100218.88
2019-04-30T21:50:16.754Z,100207.58
2019-04-30T21:55:20.285Z,100212.95
2019-04-30T22:00:25.726Z,100216.52
2019-04-30T22:05:29.254Z,100207.83
2019-04-30T22:10:32.781Z,100212.77
2019-04-30T22:15:36.311Z,100205.83
2019-04-30T22:20:39.774Z,100209.81
2019-04-30T22:25:43.232Z,100206.28
2019-04-30T22:30:48.361Z,100203.50
2019-04-30T22:35:59.329Z,100205.50
2019-04-30T22:41:02.785Z,100201.94
2019-04-30T22:46:09.633Z,100197.16
2019-04-30T22:56:15.794Z,100189.25
2019-04-30T23:11:31.838Z,100186.47
2019-04-30T23:16:35.298Z,100184.72
2019-04-30T23:21:39.201Z,100182.55
2019-04-30T23:26:42.654Z,100182.72
2019-04-30T23:31:46.122Z,100175.59
2019-04-30T23:36:49.582Z,100165.87
2019-04-30T23:41:53.041Z,100158.14
2019-04-30T23:46:56.501Z,100158.14
2019-04-30T23:51:59.965Z,100153.37
2019-04-30T23:57:03.428Z,100150.41
